sensor_id;sensor_type;location;lat;lon;timestamp;P1;durP1;ratioP1;P2;durP2;ratioP2
8861;SDS011;4799;50.996;4.754;2024-03-07T00:00:12;57.87;;;47.43;;
8861;SDS011;4799;50.996;4.754;2024-03-07T00:02:43;53.97;;;46.33;;
8861;SDS011;4799;50.996;4.754;2024-03-07T00:05:10;54.33;;;45.13;;
8861;SDS011;4799;50.996;4.754;2024-03-07T00:07:37;55.83;;;44.57;;
8861;SDS011;4799;50.996;4.754;2024-03-07T00:10:03;51.77;;;44.83;;
8861;SDS011;4799;50.996;4.754;2024-03-07T00:12:32;54.80;;;47.80;;
8861;SDS011;4799;50.996;4.754;2024-03-07T00:15:00;57.23;;;47.13;;
8861;SDS011;4799;50.996;4.754;2024-03-07T00:17:30;53.10;;;44.30;;
8861;SDS011;4799;50.996;4.754;2024-03-07T00:19:56;56.80;;;44.80;;
8861;SDS011;4799;50.996;4.754;2024-03-07T00:22:22;53.50;;;43.83;;
8861;SDS011;4799;50.996;4.754;2024-03-07T00:24:51;54.23;;;44.60;;
8861;SDS011;4799;50.996;4.754;2024-03-07T00:27:20;61.43;;;48.27;;
8861;SDS011;4799;50.996;4.754;2024-03-07T00:29:49;67.23;;;51.90;;
8861;SDS011;4799;50.996;4.754;2024-03-07T00:32:19;66.63;;;52.50;;
8861;SDS011;4799;50.996;4.754;2024-03-07T00:34:45;73.47;;;52.97;;
8861;SDS011;4799;50.996;4.754;2024-03-07T00:37:12;71.10;;;53.53;;
8861;SDS011;4799;50.996;4.754;2024-03-07T00:39:38;66.03;;;52.87;;
8861;SDS011;4799;50.996;4.754;2024-03-07T00:42:04;68.97;;;53.73;;
8861;SDS011;4799;50.996;4.754;2024-03-07T00:44:29;72.80;;;56.80;;
8861;SDS011;4799;50.996;4.754;2024-03-07T00:46:55;65.03;;;51.90;;
8861;SDS011;4799;50.996;4.754;2024-03-07T00:49:22;73.80;;;54.27;;
8861;SDS011;4799;50.996;4.754;2024-03-07T00:51:48;64.13;;;52.40;;
8861;SDS011;4799;50.996;4.754;2024-03-07T00:54:14;72.97;;;56.10;;
8861;SDS011;4799;50.996;4.754;2024-03-07T00:56:40;74.57;;;55.63;;
8861;SDS011;4799;50.996;4.754;2024-03-07T00:59:06;79.07;;;57.20;;
8861;SDS011;4799;50.996;4.754;2024-03-07T01:01:32;75.40;;;55.97;;
8861;SDS011;4799;50.996;4.754;2024-03-07T01:04:03;75.23;;;54.93;;
8861;SDS011;4799;50.996;4.754;2024-03-07T01:06:28;63.63;;;50.37;;
8861;SDS011;4799;50.996;4.754;2024-03-07T01:08:55;70.80;;;51.37;;
8861;SDS011;4799;50.996;4.754;2024-03-07T01:11:21;63.00;;;49.17;;
8861;SDS011;4799;50.996;4.754;2024-03-07T01:13:47;71.67;;;51.67;;
8861;SDS011;4799;50.996;4.754;2024-03-07T01:16:13;53.93;;;44.07;;
8861;SDS011;4799;50.996;4.754;2024-03-07T01:18:39;77.30;;;55.27;;
8861;SDS011;4799;50.996;4.754;2024-03-07T01:21:05;77.63;;;55.77;;
8861;SDS011;4799;50.996;4.754;2024-03-07T01:23:31;96.90;;;62.10;;
8861;SDS011;4799;50.996;4.754;2024-03-07T01:25:57;89.20;;;60.33;;
8861;SDS011;4799;50.996;4.754;2024-03-07T01:28:24;97.67;;;64.13;;
8861;SDS011;4799;50.996;4.754;2024-03-07T01:30:51;100.50;;;63.57;;
8861;SDS011;4799;50.996;4.754;2024-03-07T01:33:18;76.33;;;55.70;;
8861;SDS011;4799;50.996;4.754;2024-03-07T01:35:47;84.83;;;58.17;;
8861;SDS011;4799;50.996;4.754;2024-03-07T01:38:13;82.30;;;57.37;;
8861;SDS011;4799;50.996;4.754;2024-03-07T01:40:40;86.70;;;58.63;;
8861;SDS011;4799;50.996;4.754;2024-03-07T01:43:06;88.17;;;58.90;;
8861;SDS011;4799;50.996;4.754;2024-03-07T01:45:33;99.93;;;66.30;;
8861;SDS011;4799;50.996;4.754;2024-03-07T01:48:02;96.77;;;63.07;;
8861;SDS011;4799;50.996;4.754;2024-03-07T01:50:33;87.27;;;58.67;;
8861;SDS011;4799;50.996;4.754;2024-03-07T01:53:03;92.97;;;61.07;;
8861;SDS011;4799;50.996;4.754;2024-03-07T01:55:31;77.13;;;55.73;;
8861;SDS011;4799;50.996;4.754;2024-03-07T01:57:59;82.23;;;56.13;;
8861;SDS011;4799;50.996;4.754;2024-03-07T02:00:25;90.37;;;58.93;;
8861;SDS011;4799;50.996;4.754;2024-03-07T02:02:51;86.70;;;57.87;;
8861;SDS011;4799;50.996;4.754;2024-03-07T02:05:18;93.00;;;59.23;;
8861;SDS011;4799;50.996;4.754;2024-03-07T02:07:45;100.30;;;63.73;;
8861;SDS011;4799;50.996;4.754;2024-03-07T02:10:11;83.40;;;58.50;;
8861;SDS011;4799;50.996;4.754;2024-03-07T02:12:37;75.97;;;54.60;;
8861;SDS011;4799;50.996;4.754;2024-03-07T02:15:03;68.80;;;50.40;;
8861;SDS011;4799;50.996;4.754;2024-03-07T02:17:29;69.70;;;48.27;;
8861;SDS011;4799;50.996;4.754;2024-03-07T02:19:55;66.30;;;47.63;;
8861;SDS011;4799;50.996;4.754;2024-03-07T02:22:20;70.77;;;49.47;;
8861;SDS011;4799;50.996;4.754;2024-03-07T02:24:46;67.40;;;47.93;;
8861;SDS011;4799;50.996;4.754;2024-03-07T02:27:12;52.60;;;42.27;;
8861;SDS011;4799;50.996;4.754;2024-03-07T02:29:41;54.97;;;40.50;;
8861;SDS011;4799;50.996;4.754;2024-03-07T02:32:07;48.73;;;37.50;;
8861;SDS011;4799;50.996;4.754;2024-03-07T02:34:33;46.20;;;38.23;;
8861;SDS011;4799;50.996;4.754;2024-03-07T02:36:59;45.47;;;37.67;;
8861;SDS011;4799;50.996;4.754;2024-03-07T02:39:25;50.90;;;38.30;;
8861;SDS011;4799;50.996;4.754;2024-03-07T02:41:51;56.13;;;41.93;;
8861;SDS011;4799;50.996;4.754;2024-03-07T02:44:16;73.23;;;50.77;;
8861;SDS011;4799;50.996;4.754;2024-03-07T02:46:42;56.30;;;42.33;;
8861;SDS011;4799;50.996;4.754;2024-03-07T02:49:08;56.77;;;43.90;;
8861;SDS011;4799;50.996;4.754;2024-03-07T02:51:34;55.23;;;42.77;;
8861;SDS011;4799;50.996;4.754;2024-03-07T02:54:00;63.73;;;45.87;;
8861;SDS011;4799;50.996;4.754;2024-03-07T02:56:28;67.07;;;47.53;;
8861;SDS011;4799;50.996;4.754;2024-03-07T02:58:53;58.77;;;44.00;;
8861;SDS011;4799;50.996;4.754;2024-03-07T03:01:19;58.73;;;44.47;;
8861;SDS011;4799;50.996;4.754;2024-03-07T03:03:45;80.10;;;53.53;;
8861;SDS011;4799;50.996;4.754;2024-03-07T03:06:11;68.43;;;48.20;;
8861;SDS011;4799;50.996;4.754;2024-03-07T03:08:36;68.47;;;49.20;;
8861;SDS011;4799;50.996;4.754;2024-03-07T03:11:03;86.40;;;54.93;;
8861;SDS011;4799;50.996;4.754;2024-03-07T03:13:29;109.63;;;64.30;;
8861;SDS011;4799;50.996;4.754;2024-03-07T03:15:57;71.57;;;49.90;;
8861;SDS011;4799;50.996;4.754;2024-03-07T03:18:23;100.80;;;58.60;;
8861;SDS011;4799;50.996;4.754;2024-03-07T03:20:49;75.43;;;50.63;;
8861;SDS011;4799;50.996;4.754;2024-03-07T03:23:15;76.30;;;52.73;;
8861;SDS011;4799;50.996;4.754;2024-03-07T03:25:41;86.13;;;57.00;;
8861;SDS011;4799;50.996;4.754;2024-03-07T03:28:08;81.57;;;54.00;;
8861;SDS011;4799;50.996;4.754;2024-03-07T03:30:37;102.30;;;64.23;;
8861;SDS011;4799;50.996;4.754;2024-03-07T03:33:06;81.03;;;55.10;;
8861;SDS011;4799;50.996;4.754;2024-03-07T03:35:36;83.63;;;53.17;;
8861;SDS011;4799;50.996;4.754;2024-03-07T03:38:02;85.97;;;53.57;;
8861;SDS011;4799;50.996;4.754;2024-03-07T03:40:28;86.63;;;55.67;;
8861;SDS011;4799;50.996;4.754;2024-03-07T03:42:54;127.23;;;67.10;;
8861;SDS011;4799;50.996;4.754;2024-03-07T03:45:20;132.07;;;72.03;;
8861;SDS011;4799;50.996;4.754;2024-03-07T03:47:46;143.90;;;74.53;;
8861;SDS011;4799;50.996;4.754;2024-03-07T03:50:13;133.93;;;72.03;;
8861;SDS011;4799;50.996;4.754;2024-03-07T03:52:39;133.30;;;76.17;;
8861;SDS011;4799;50.996;4.754;2024-03-07T03:55:06;157.27;;;83.87;;
8861;SDS011;4799;50.996;4.754;2024-03-07T03:57:37;157.20;;;80.77;;
8861;SDS011;4799;50.996;4.754;2024-03-07T04:00:08;122.47;;;72.33;;
8861;SDS011;4799;50.996;4.754;2024-03-07T04:02:38;133.67;;;74.40;;
8861;SDS011;4799;50.996;4.754;2024-03-07T04:05:04;160.93;;;88.20;;
8861;SDS011;4799;50.996;4.754;2024-03-07T04:07:30;180.80;;;90.77;;
8861;SDS011;4799;50.996;4.754;2024-03-07T04:09:58;180.30;;;93.27;;
8861;SDS011;4799;50.996;4.754;2024-03-07T04:12:24;170.27;;;86.90;;
8861;SDS011;4799;50.996;4.754;2024-03-07T04:14:52;166.60;;;89.43;;
8861;SDS011;4799;50.996;4.754;2024-03-07T04:17:20;176.80;;;92.23;;
8861;SDS011;4799;50.996;4.754;2024-03-07T04:19:46;193.33;;;95.70;;
8861;SDS011;4799;50.996;4.754;2024-03-07T04:22:12;205.13;;;97.07;;
8861;SDS011;4799;50.996;4.754;2024-03-07T04:24:38;188.13;;;93.23;;
8861;SDS011;4799;50.996;4.754;2024-03-07T04:27:05;200.43;;;94.80;;
8861;SDS011;4799;50.996;4.754;2024-03-07T04:29:32;210.00;;;95.83;;
8861;SDS011;4799;50.996;4.754;2024-03-07T04:31:58;227.43;;;102.97;;
8861;SDS011;4799;50.996;4.754;2024-03-07T04:34:26;206.00;;;95.33;;
8861;SDS011;4799;50.996;4.754;2024-03-07T04:36:55;232.20;;;101.63;;
8861;SDS011;4799;50.996;4.754;2024-03-07T04:39:29;221.27;;;101.50;;
8861;SDS011;4799;50.996;4.754;2024-03-07T04:41:58;216.63;;;100.37;;
8861;SDS011;4799;50.996;4.754;2024-03-07T04:44:27;180.97;;;90.50;;
8861;SDS011;4799;50.996;4.754;2024-03-07T04:46:54;221.03;;;98.03;;
8861;SDS011;4799;50.996;4.754;2024-03-07T04:49:24;180.97;;;89.53;;
8861;SDS011;4799;50.996;4.754;2024-03-07T04:51:51;230.33;;;102.33;;
8861;SDS011;4799;50.996;4.754;2024-03-07T04:54:18;223.63;;;98.27;;
8861;SDS011;4799;50.996;4.754;2024-03-07T04:56:47;258.23;;;103.10;;
8861;SDS011;4799;50.996;4.754;2024-03-07T04:59:15;233.50;;;100.50;;
8861;SDS011;4799;50.996;4.754;2024-03-07T05:01:42;224.90;;;98.83;;
8861;SDS011;4799;50.996;4.754;2024-03-07T05:04:09;231.70;;;102.43;;
8861;SDS011;4799;50.996;4.754;2024-03-07T05:06:35;231.97;;;101.73;;
8861;SDS011;4799;50.996;4.754;2024-03-07T05:09:01;240.60;;;107.67;;
8861;SDS011;4799;50.996;4.754;2024-03-07T05:11:28;231.53;;;101.33;;
8861;SDS011;4799;50.996;4.754;2024-03-07T05:13:55;216.10;;;98.73;;
8861;SDS011;4799;50.996;4.754;2024-03-07T05:16:20;251.93;;;107.70;;
8861;SDS011;4799;50.996;4.754;2024-03-07T05:18:46;261.33;;;107.60;;
8861;SDS011;4799;50.996;4.754;2024-03-07T05:21:12;250.90;;;108.67;;
8861;SDS011;4799;50.996;4.754;2024-03-07T05:24:13;285.50;;;110.73;;
8861;SDS011;4799;50.996;4.754;2024-03-07T05:26:40;305.40;;;112.33;;
8861;SDS011;4799;50.996;4.754;2024-03-07T05:29:06;315.57;;;115.50;;
8861;SDS011;4799;50.996;4.754;2024-03-07T05:31:36;377.73;;;122.53;;
8861;SDS011;4799;50.996;4.754;2024-03-07T05:34:04;331.10;;;110.80;;
8861;SDS011;4799;50.996;4.754;2024-03-07T05:36:36;450.30;;;117.47;;
8861;SDS011;4799;50.996;4.754;2024-03-07T05:39:16;527.30;;;132.47;;
8861;SDS011;4799;50.996;4.754;2024-03-07T05:41:43;544.07;;;128.93;;
8861;SDS011;4799;50.996;4.754;2024-03-07T05:44:13;612.00;;;136.20;;
8861;SDS011;4799;50.996;4.754;2024-03-07T05:46:39;509.13;;;126.57;;
8861;SDS011;4799;50.996;4.754;2024-03-07T05:49:07;479.60;;;121.37;;
8861;SDS011;4799;50.996;4.754;2024-03-07T05:51:33;471.80;;;125.27;;
8861;SDS011;4799;50.996;4.754;2024-03-07T05:53:59;500.30;;;119.97;;
8861;SDS011;4799;50.996;4.754;2024-03-07T05:56:25;621.33;;;135.33;;
8861;SDS011;4799;50.996;4.754;2024-03-07T05:58:52;519.10;;;125.40;;
8861;SDS011;4799;50.996;4.754;2024-03-07T06:01:18;463.30;;;117.67;;
8861;SDS011;4799;50.996;4.754;2024-03-07T06:03:44;566.13;;;123.93;;
8861;SDS011;4799;50.996;4.754;2024-03-07T06:06:11;599.40;;;135.77;;
8861;SDS011;4799;50.996;4.754;2024-03-07T06:08:37;496.20;;;120.10;;
8861;SDS011;4799;50.996;4.754;2024-03-07T06:11:08;461.23;;;113.23;;
8861;SDS011;4799;50.996;4.754;2024-03-07T06:13:34;369.23;;;110.23;;
8861;SDS011;4799;50.996;4.754;2024-03-07T06:16:00;576.20;;;130.40;;
8861;SDS011;4799;50.996;4.754;2024-03-07T06:18:30;380.73;;;115.87;;
8861;SDS011;4799;50.996;4.754;2024-03-07T06:20:56;575.53;;;125.80;;
8861;SDS011;4799;50.996;4.754;2024-03-07T06:23:22;653.73;;;141.77;;
8861;SDS011;4799;50.996;4.754;2024-03-07T06:25:48;588.70;;;128.47;;
8861;SDS011;4799;50.996;4.754;2024-03-07T06:28:16;340.33;;;109.00;;
8861;SDS011;4799;50.996;4.754;2024-03-07T06:30:46;474.60;;;123.87;;
8861;SDS011;4799;50.996;4.754;2024-03-07T06:33:12;447.87;;;115.23;;
8861;SDS011;4799;50.996;4.754;2024-03-07T06:35:39;462.83;;;125.77;;
8861;SDS011;4799;50.996;4.754;2024-03-07T06:38:06;437.27;;;114.73;;
8861;SDS011;4799;50.996;4.754;2024-03-07T06:40:36;428.17;;;116.80;;
8861;SDS011;4799;50.996;4.754;2024-03-07T06:43:03;533.33;;;116.57;;
8861;SDS011;4799;50.996;4.754;2024-03-07T06:45:32;545.27;;;127.70;;
8861;SDS011;4799;50.996;4.754;2024-03-07T06:47:58;404.60;;;114.57;;
8861;SDS011;4799;50.996;4.754;2024-03-07T06:50:25;364.73;;;105.40;;
8861;SDS011;4799;50.996;4.754;2024-03-07T06:52:51;391.37;;;109.57;;
8861;SDS011;4799;50.996;4.754;2024-03-07T06:55:17;575.07;;;127.93;;
8861;SDS011;4799;50.996;4.754;2024-03-07T06:57:46;415.67;;;108.60;;
8861;SDS011;4799;50.996;4.754;2024-03-07T07:00:13;411.40;;;117.50;;
8861;SDS011;4799;50.996;4.754;2024-03-07T07:02:45;333.77;;;104.07;;
8861;SDS011;4799;50.996;4.754;2024-03-07T07:05:11;478.07;;;115.10;;
8861;SDS011;4799;50.996;4.754;2024-03-07T07:07:43;438.80;;;119.60;;
8861;SDS011;4799;50.996;4.754;2024-03-07T07:10:09;272.43;;;95.63;;
8861;SDS011;4799;50.996;4.754;2024-03-07T07:12:48;339.63;;;104.97;;
8861;SDS011;4799;50.996;4.754;2024-03-07T07:15:15;367.67;;;111.37;;
8861;SDS011;4799;50.996;4.754;2024-03-07T07:17:43;311.53;;;103.70;;
8861;SDS011;4799;50.996;4.754;2024-03-07T07:20:12;297.87;;;103.00;;
8861;SDS011;4799;50.996;4.754;2024-03-07T07:22:45;297.03;;;102.40;;
8861;SDS011;4799;50.996;4.754;2024-03-07T07:25:12;247.77;;;98.10;;
8861;SDS011;4799;50.996;4.754;2024-03-07T07:27:46;248.13;;;96.23;;
8861;SDS011;4799;50.996;4.754;2024-03-07T07:30:19;241.40;;;94.60;;
8861;SDS011;4799;50.996;4.754;2024-03-07T07:32:50;213.30;;;91.57;;
8861;SDS011;4799;50.996;4.754;2024-03-07T07:35:18;217.47;;;91.27;;
8861;SDS011;4799;50.996;4.754;2024-03-07T07:37:46;206.60;;;89.30;;
8861;SDS011;4799;50.996;4.754;2024-03-07T07:40:14;200.37;;;90.63;;
8861;SDS011;4799;50.996;4.754;2024-03-07T07:42:46;211.83;;;90.60;;
8861;SDS011;4799;50.996;4.754;2024-03-07T07:45:13;181.80;;;86.67;;
8861;SDS011;4799;50.996;4.754;2024-03-07T07:47:41;173.20;;;82.70;;
8861;SDS011;4799;50.996;4.754;2024-03-07T07:50:07;155.73;;;78.67;;
8861;SDS011;4799;50.996;4.754;2024-03-07T07:52:44;155.00;;;75.97;;
8861;SDS011;4799;50.996;4.754;2024-03-07T07:55:13;144.93;;;76.30;;
8861;SDS011;4799;50.996;4.754;2024-03-07T07:57:46;149.73;;;78.80;;
8861;SDS011;4799;50.996;4.754;2024-03-07T08:00:14;134.40;;;72.67;;
8861;SDS011;4799;50.996;4.754;2024-03-07T08:02:51;128.57;;;73.10;;
8861;SDS011;4799;50.996;4.754;2024-03-07T08:05:19;116.23;;;67.37;;
8861;SDS011;4799;50.996;4.754;2024-03-07T08:07:48;117.40;;;70.67;;
8861;SDS011;4799;50.996;4.754;2024-03-07T08:10:18;121.80;;;70.87;;
8861;SDS011;4799;50.996;4.754;2024-03-07T08:12:45;112.80;;;68.80;;
8861;SDS011;4799;50.996;4.754;2024-03-07T08:15:12;107.40;;;66.23;;
8861;SDS011;4799;50.996;4.754;2024-03-07T08:17:41;110.97;;;67.40;;
8861;SDS011;4799;50.996;4.754;2024-03-07T08:20:14;106.17;;;68.37;;
8861;SDS011;4799;50.996;4.754;2024-03-07T08:22:43;107.67;;;67.93;;
8861;SDS011;4799;50.996;4.754;2024-03-07T08:25:15;104.67;;;67.77;;
8861;SDS011;4799;50.996;4.754;2024-03-07T08:27:42;103.37;;;67.43;;
8861;SDS011;4799;50.996;4.754;2024-03-07T08:30:11;107.07;;;67.53;;
8861;SDS011;4799;50.996;4.754;2024-03-07T08:32:46;101.40;;;67.67;;
8861;SDS011;4799;50.996;4.754;2024-03-07T08:35:14;103.67;;;67.83;;
8861;SDS011;4799;50.996;4.754;2024-03-07T08:37:45;100.73;;;67.10;;
8861;SDS011;4799;50.996;4.754;2024-03-07T08:40:14;103.57;;;68.37;;
8861;SDS011;4799;50.996;4.754;2024-03-07T08:42:46;98.40;;;65.20;;
8861;SDS011;4799;50.996;4.754;2024-03-07T08:45:13;103.07;;;66.60;;
8861;SDS011;4799;50.996;4.754;2024-03-07T08:47:44;92.23;;;63.23;;
8861;SDS011;4799;50.996;4.754;2024-03-07T08:50:14;91.50;;;61.80;;
8861;SDS011;4799;50.996;4.754;2024-03-07T08:52:46;91.13;;;63.57;;
8861;SDS011;4799;50.996;4.754;2024-03-07T08:55:17;88.30;;;61.23;;
8861;SDS011;4799;50.996;4.754;2024-03-07T08:57:45;86.80;;;59.77;;
8861;SDS011;4799;50.996;4.754;2024-03-07T09:00:13;86.43;;;59.57;;
8861;SDS011;4799;50.996;4.754;2024-03-07T09:02:48;82.30;;;58.53;;
8861;SDS011;4799;50.996;4.754;2024-03-07T09:05:17;83.40;;;60.37;;
8861;SDS011;4799;50.996;4.754;2024-03-07T09:07:44;82.90;;;58.80;;
8861;SDS011;4799;50.996;4.754;2024-03-07T09:10:12;77.47;;;56.87;;
8861;SDS011;4799;50.996;4.754;2024-03-07T09:12:39;79.63;;;58.20;;
8861;SDS011;4799;50.996;4.754;2024-03-07T09:15:06;77.70;;;56.33;;
8861;SDS011;4799;50.996;4.754;2024-03-07T09:17:32;73.23;;;54.70;;
8861;SDS011;4799;50.996;4.754;2024-03-07T09:19:58;75.70;;;57.03;;
8861;SDS011;4799;50.996;4.754;2024-03-07T09:22:23;77.43;;;57.43;;
8861;SDS011;4799;50.996;4.754;2024-03-07T09:24:50;77.33;;;56.33;;
8861;SDS011;4799;50.996;4.754;2024-03-07T09:27:16;76.17;;;55.87;;
8861;SDS011;4799;50.996;4.754;2024-03-07T09:29:45;71.10;;;54.50;;
8861;SDS011;4799;50.996;4.754;2024-03-07T09:32:12;73.20;;;54.23;;
8861;SDS011;4799;50.996;4.754;2024-03-07T09:34:38;74.77;;;53.23;;
8861;SDS011;4799;50.996;4.754;2024-03-07T09:37:04;65.60;;;51.50;;
8861;SDS011;4799;50.996;4.754;2024-03-07T09:39:32;63.00;;;50.70;;
8861;SDS011;4799;50.996;4.754;2024-03-07T09:42:03;66.67;;;51.10;;
8861;SDS011;4799;50.996;4.754;2024-03-07T09:44:34;67.03;;;50.33;;
8861;SDS011;4799;50.996;4.754;2024-03-07T09:47:04;65.70;;;50.10;;
8861;SDS011;4799;50.996;4.754;2024-03-07T09:49:30;62.37;;;48.87;;
8861;SDS011;4799;50.996;4.754;2024-03-07T09:52:01;61.27;;;48.50;;
8861;SDS011;4799;50.996;4.754;2024-03-07T09:54:33;59.77;;;48.73;;
8861;SDS011;4799;50.996;4.754;2024-03-07T09:57:03;58.63;;;47.27;;
8861;SDS011;4799;50.996;4.754;2024-03-07T09:59:34;59.37;;;46.57;;
8861;SDS011;4799;50.996;4.754;2024-03-07T10:02:05;54.60;;;44.30;;
8861;SDS011;4799;50.996;4.754;2024-03-07T10:07:01;53.07;;;44.40;;
8861;SDS011;4799;50.996;4.754;2024-03-07T10:09:27;55.43;;;44.77;;
8861;SDS011;4799;50.996;4.754;2024-03-07T10:11:59;53.13;;;42.90;;
8861;SDS011;4799;50.996;4.754;2024-03-07T10:14:25;49.67;;;41.33;;
8861;SDS011;4799;50.996;4.754;2024-03-07T10:16:53;48.60;;;40.00;;
8861;SDS011;4799;50.996;4.754;2024-03-07T10:19:22;44.77;;;38.20;;
8861;SDS011;4799;50.996;4.754;2024-03-07T10:21:47;46.53;;;37.40;;
8861;SDS011;4799;50.996;4.754;2024-03-07T10:24:13;44.60;;;39.17;;
8861;SDS011;4799;50.996;4.754;2024-03-07T10:26:39;48.23;;;38.90;;
8861;SDS011;4799;50.996;4.754;2024-03-07T10:29:07;47.77;;;39.40;;
8861;SDS011;4799;50.996;4.754;2024-03-07T10:31:33;47.00;;;40.03;;
8861;SDS011;4799;50.996;4.754;2024-03-07T10:34:00;45.13;;;38.57;;
8861;SDS011;4799;50.996;4.754;2024-03-07T10:36:29;46.90;;;38.83;;
8861;SDS011;4799;50.996;4.754;2024-03-07T10:38:57;45.27;;;39.43;;
8861;SDS011;4799;50.996;4.754;2024-03-07T10:41:36;45.17;;;38.23;;
8861;SDS011;4799;50.996;4.754;2024-03-07T10:44:33;46.80;;;38.57;;
8861;SDS011;4799;50.996;4.754;2024-03-07T10:47:03;45.97;;;39.97;;
8861;SDS011;4799;50.996;4.754;2024-03-07T10:49:31;47.27;;;39.83;;
8861;SDS011;4799;50.996;4.754;2024-03-07T10:57:46;45.03;;;39.83;;
8861;SDS011;4799;50.996;4.754;2024-03-07T11:00:21;45.63;;;39.70;;
8861;SDS011;4799;50.996;4.754;2024-03-07T11:03:09;43.60;;;38.90;;
8861;SDS011;4799;50.996;4.754;2024-03-07T11:05:36;45.37;;;38.13;;
8861;SDS011;4799;50.996;4.754;2024-03-07T11:08:03;41.90;;;37.20;;
8861;SDS011;4799;50.996;4.754;2024-03-07T11:10:48;44.67;;;37.07;;
8861;SDS011;4799;50.996;4.754;2024-03-07T11:13:15;41.70;;;37.03;;
8861;SDS011;4799;50.996;4.754;2024-03-07T11:15:42;39.87;;;35.50;;
8861;SDS011;4799;50.996;4.754;2024-03-07T11:18:11;40.60;;;35.63;;
8861;SDS011;4799;50.996;4.754;2024-03-07T11:20:38;40.13;;;35.83;;
8861;SDS011;4799;50.996;4.754;2024-03-07T11:25:54;41.40;;;36.90;;
8861;SDS011;4799;50.996;4.754;2024-03-07T11:28:29;39.97;;;35.43;;
8861;SDS011;4799;50.996;4.754;2024-03-07T11:31:06;39.53;;;35.00;;
8861;SDS011;4799;50.996;4.754;2024-03-07T11:33:38;36.23;;;32.37;;
8861;SDS011;4799;50.996;4.754;2024-03-07T11:36:10;33.57;;;30.07;;
8861;SDS011;4799;50.996;4.754;2024-03-07T11:38:37;33.47;;;30.00;;
8861;SDS011;4799;50.996;4.754;2024-03-07T11:41:49;34.03;;;30.43;;
8861;SDS011;4799;50.996;4.754;2024-03-07T11:44:16;33.20;;;29.83;;
8861;SDS011;4799;50.996;4.754;2024-03-07T11:46:43;33.30;;;29.73;;
8861;SDS011;4799;50.996;4.754;2024-03-07T11:49:08;31.83;;;28.63;;
8861;SDS011;4799;50.996;4.754;2024-03-07T11:51:38;31.27;;;27.93;;
8861;SDS011;4799;50.996;4.754;2024-03-07T11:54:04;32.17;;;28.97;;
8861;SDS011;4799;50.996;4.754;2024-03-07T11:56:30;30.43;;;27.30;;
8861;SDS011;4799;50.996;4.754;2024-03-07T11:58:56;31.40;;;28.37;;
8861;SDS011;4799;50.996;4.754;2024-03-07T12:01:22;30.83;;;27.63;;
8861;SDS011;4799;50.996;4.754;2024-03-07T12:03:51;31.57;;;28.20;;
8861;SDS011;4799;50.996;4.754;2024-03-07T12:06:18;30.27;;;27.17;;
8861;SDS011;4799;50.996;4.754;2024-03-07T12:08:45;31.57;;;28.37;;
8861;SDS011;4799;50.996;4.754;2024-03-07T12:11:10;31.63;;;28.40;;
8861;SDS011;4799;50.996;4.754;2024-03-07T12:13:41;31.20;;;28.00;;
8861;SDS011;4799;50.996;4.754;2024-03-07T12:16:07;28.97;;;26.17;;
8861;SDS011;4799;50.996;4.754;2024-03-07T12:18:33;28.97;;;26.07;;
8861;SDS011;4799;50.996;4.754;2024-03-07T12:21:01;30.93;;;27.67;;
8861;SDS011;4799;50.996;4.754;2024-03-07T12:23:31;30.03;;;26.93;;
8861;SDS011;4799;50.996;4.754;2024-03-07T12:26:01;29.93;;;26.83;;
8861;SDS011;4799;50.996;4.754;2024-03-07T12:28:29;29.10;;;26.00;;
8861;SDS011;4799;50.996;4.754;2024-03-07T12:31:03;28.73;;;25.93;;
8861;SDS011;4799;50.996;4.754;2024-03-07T12:33:31;29.30;;;26.30;;
8861;SDS011;4799;50.996;4.754;2024-03-07T12:36:03;28.53;;;25.63;;
8861;SDS011;4799;50.996;4.754;2024-03-07T12:38:32;28.47;;;25.63;;
8861;SDS011;4799;50.996;4.754;2024-03-07T12:41:04;29.33;;;26.37;;
8861;SDS011;4799;50.996;4.754;2024-03-07T12:43:32;29.10;;;26.10;;
8861;SDS011;4799;50.996;4.754;2024-03-07T12:45:58;28.70;;;25.80;;
8861;SDS011;4799;50.996;4.754;2024-03-07T12:48:24;29.40;;;26.50;;
8861;SDS011;4799;50.996;4.754;2024-03-07T12:50:50;30.40;;;27.50;;
8861;SDS011;4799;50.996;4.754;2024-03-07T12:53:20;28.37;;;25.37;;
8861;SDS011;4799;50.996;4.754;2024-03-07T12:55:47;27.50;;;24.83;;
8861;SDS011;4799;50.996;4.754;2024-03-07T12:58:13;27.50;;;24.77;;
8861;SDS011;4799;50.996;4.754;2024-03-07T13:00:40;26.53;;;23.93;;
8861;SDS011;4799;50.996;4.754;2024-03-07T13:03:07;26.00;;;23.20;;
8861;SDS011;4799;50.996;4.754;2024-03-07T13:05:36;25.27;;;22.90;;
8861;SDS011;4799;50.996;4.754;2024-03-07T13:08:05;24.00;;;21.70;;
8861;SDS011;4799;50.996;4.754;2024-03-07T13:10:39;24.13;;;21.63;;
8861;SDS011;4799;50.996;4.754;2024-03-07T13:13:07;24.43;;;22.10;;
8861;SDS011;4799;50.996;4.754;2024-03-07T13:15:36;24.03;;;21.53;;
8861;SDS011;4799;50.996;4.754;2024-03-07T13:18:03;24.60;;;22.20;;
8861;SDS011;4799;50.996;4.754;2024-03-07T13:20:34;25.57;;;23.07;;
8861;SDS011;4799;50.996;4.754;2024-03-07T13:23:01;25.13;;;22.73;;
8861;SDS011;4799;50.996;4.754;2024-03-07T13:25:28;26.00;;;23.60;;
8861;SDS011;4799;50.996;4.754;2024-03-07T13:30:24;25.10;;;22.90;;
8861;SDS011;4799;50.996;4.754;2024-03-07T13:32:54;25.20;;;22.87;;
8861;SDS011;4799;50.996;4.754;2024-03-07T13:35:20;25.93;;;23.53;;
8861;SDS011;4799;50.996;4.754;2024-03-07T13:37:47;26.43;;;23.93;;
8861;SDS011;4799;50.996;4.754;2024-03-07T13:40:14;25.80;;;23.43;;
8861;SDS011;4799;50.996;4.754;2024-03-07T13:42:50;26.27;;;23.77;;
8861;SDS011;4799;50.996;4.754;2024-03-07T13:45:17;26.23;;;23.83;;
8861;SDS011;4799;50.996;4.754;2024-03-07T13:47:46;26.83;;;24.40;;
8861;SDS011;4799;50.996;4.754;2024-03-07T13:50:14;26.27;;;23.83;;
8861;SDS011;4799;50.996;4.754;2024-03-07T13:52:56;23.50;;;21.37;;
8861;SDS011;4799;50.996;4.754;2024-03-07T13:55:46;23.67;;;21.37;;
8861;SDS011;4799;50.996;4.754;2024-03-07T13:58:17;23.77;;;21.53;;
8861;SDS011;4799;50.996;4.754;2024-03-07T14:04:27;25.20;;;22.73;;
8861;SDS011;4799;50.996;4.754;2024-03-07T14:25:05;22.77;;;20.50;;
8861;SDS011;4799;50.996;4.754;2024-03-07T14:30:52;23.07;;;20.73;;
8861;SDS011;4799;50.996;4.754;2024-03-07T14:33:35;21.07;;;18.97;;
8861;SDS011;4799;50.996;4.754;2024-03-07T14:36:16;21.37;;;18.73;;
8861;SDS011;4799;50.996;4.754;2024-03-07T14:41:19;21.80;;;19.60;;
8861;SDS011;4799;50.996;4.754;2024-03-07T14:43:49;21.63;;;19.37;;
8861;SDS011;4799;50.996;4.754;2024-03-07T14:46:16;20.60;;;18.53;;
8861;SDS011;4799;50.996;4.754;2024-03-07T14:48:42;20.83;;;18.63;;
8861;SDS011;4799;50.996;4.754;2024-03-07T14:51:09;20.73;;;18.63;;
8861;SDS011;4799;50.996;4.754;2024-03-07T14:53:39;21.73;;;19.53;;
8861;SDS011;4799;50.996;4.754;2024-03-07T14:56:07;21.47;;;19.17;;
8861;SDS011;4799;50.996;4.754;2024-03-07T14:58:34;21.77;;;19.47;;
8861;SDS011;4799;50.996;4.754;2024-03-07T15:01:00;21.10;;;18.97;;
8861;SDS011;4799;50.996;4.754;2024-03-07T15:03:26;21.43;;;19.20;;
8861;SDS011;4799;50.996;4.754;2024-03-07T15:05:55;22.85;;;20.48;;
8861;SDS011;4799;50.996;4.754;2024-03-07T15:08:21;22.02;;;19.88;;
8861;SDS011;4799;50.996;4.754;2024-03-07T15:10:53;21.83;;;19.63;;
8861;SDS011;4799;50.996;4.754;2024-03-07T15:13:45;20.37;;;18.33;;
8861;SDS011;4799;50.996;4.754;2024-03-07T15:16:11;21.13;;;18.93;;
8861;SDS011;4799;50.996;4.754;2024-03-07T15:18:37;21.47;;;19.17;;
8861;SDS011;4799;50.996;4.754;2024-03-07T15:21:03;22.00;;;19.70;;
8861;SDS011;4799;50.996;4.754;2024-03-07T15:23:30;22.77;;;19.30;;
8861;SDS011;4799;50.996;4.754;2024-03-07T15:25:56;21.60;;;19.30;;
8861;SDS011;4799;50.996;4.754;2024-03-07T15:28:22;21.10;;;19.00;;